Waitemata, New Zealand
Current Conditions -  °F | °C
As of 9:30 PM on Sunday 26 Oct 2014 (Local Time) from NZAA Reporting Station
Overcast Overcast  
Wind Chill: 57°   Ceiling: 4900
Heat Index: 57°   Visibility: 6mi
Dew Point: 50°   Wind: 14mph
Humidity: 77%   Direction: 270°W
Pressure: 30.03"   Gusts: NA
Location:  36.83°S, 174.67°E
Report Text: NZAA 260930Z AUTO 27012KT 9999 OVC049/// 14/10 Q1017 NOSIG
Loading
Personal Weather Stations






























Interactive Weather Map
Tropical Storm Tracking
New forecast layout! Learn more

10-Day Weather Forecast

Advertisements
Track Severe Weather on mobile